createdAt,value
2018-09-26T00:01:10.312Z,100833.45
2018-09-26T00:03:44.850Z,100834.34
2018-09-26T00:06:13.240Z,100825.11
2018-09-26T00:08:41.726Z,100826.61
2018-09-26T00:11:10.161Z,100820.53
2018-09-26T00:13:38.754Z,100830.12
2018-09-26T00:16:07.614Z,100833.19
2018-09-26T00:18:36.122Z,100834.03
2018-09-26T00:21:04.574Z,100839.09
2018-09-26T00:23:33.105Z,100836.09
2018-09-26T00:26:01.630Z,100840.16
2018-09-26T00:28:30.046Z,100823.97
2018-09-26T00:30:58.507Z,100822.88
2018-09-26T00:33:26.882Z,100816.25
2018-09-26T00:35:55.390Z,100804.86
2018-09-26T00:38:23.734Z,100809.08
2018-09-26T00:40:52.207Z,100798.34
2018-09-26T00:43:20.693Z,100799.17
2018-09-26T00:45:49.004Z,100797.34
2018-09-26T00:48:17.417Z,100807.40
2018-09-26T00:50:45.829Z,100806.08
2018-09-26T00:53:14.187Z,100813.83
2018-09-26T00:55:42.679Z,100811.71
2018-09-26T00:58:11.062Z,100806.77
2018-09-26T01:00:39.843Z,100800.84
2018-09-26T01:03:08.199Z,100800.80
2018-09-26T01:05:36.622Z,100807.48
2018-09-26T01:08:05.097Z,100797.39
2018-09-26T01:10:33.482Z,100799.06
2018-09-26T01:13:01.918Z,100790.17
2018-09-26T01:15:30.341Z,100793.67
2018-09-26T01:17:58.758Z,100793.48
2018-09-26T01:20:27.209Z,100788.67
2018-09-26T01:22:55.575Z,100781.55
2018-09-26T01:25:25.025Z,100789.52
2018-09-26T01:27:53.436Z,100778.21
2018-09-26T01:30:21.939Z,100771.27
2018-09-26T01:32:50.399Z,100759.97
2018-09-26T01:35:18.714Z,100762.61
2018-09-26T01:37:47.134Z,100767.69
2018-09-26T01:40:15.690Z,100766.27
2018-09-26T01:42:44.092Z,100764.88
2018-09-26T01:45:12.594Z,100764.98
2018-09-26T01:47:41.078Z,100764.06
2018-09-26T01:50:09.689Z,100760.40
2018-09-26T01:52:38.071Z,100753.44
2018-09-26T01:55:06.582Z,100732.84
2018-09-26T01:57:35.050Z,100729.10
2018-09-26T02:00:03.500Z,100727.39
2018-09-26T02:02:31.940Z,100709.99
2018-09-26T02:05:03.407Z,100712.97
2018-09-26T02:07:31.829Z,100723.41
2018-09-26T02:10:00.222Z,100720.61
2018-09-26T02:12:28.646Z,100726.38
2018-09-26T02:14:56.970Z,100729.82
2018-09-26T02:17:25.326Z,100724.45
2018-09-26T02:19:53.682Z,100723.67
2018-09-26T02:22:22.141Z,100718.34
2018-09-26T02:24:50.551Z,100721.33
2018-09-26T02:27:18.997Z,100731.50
2018-09-26T02:29:47.342Z,100728.85
2018-09-26T02:32:15.741Z,100723.11
2018-09-26T02:34:44.317Z,100721.60
2018-09-26T02:37:12.682Z,100711.95
2018-09-26T02:39:41.146Z,100716.31
2018-09-26T02:42:09.551Z,100713.56
2018-09-26T02:44:37.938Z,100711.43
2018-09-26T02:47:06.310Z,100709.06
2018-09-26T02:49:34.793Z,100719.07
2018-09-26T02:52:03.205Z,100732.64
2018-09-26T02:54:31.574Z,100732.75
2018-09-26T02:56:59.875Z,100734.14
2018-09-26T02:59:28.208Z,100736.14
2018-09-26T03:01:56.607Z,100733.94
2018-09-26T03:04:25.070Z,100736.53
2018-09-26T03:06:53.523Z,100724.59
2018-09-26T03:09:21.932Z,100727.96
2018-09-26T03:11:50.348Z,100722.35
2018-09-26T03:14:20.773Z,100715.31
2018-09-26T03:16:49.182Z,100714.27
2018-09-26T03:19:17.545Z,100719.70
2018-09-26T03:21:45.975Z,100718.36
2018-09-26T03:24:14.336Z,100717.92
2018-09-26T03:26:43.425Z,100716.11
2018-09-26T03:29:11.913Z,100716.11
2018-09-26T03:31:40.314Z,100715.86
2018-09-26T03:34:08.597Z,100706.34
2018-09-26T03:36:36.860Z,100697.88
2018-09-26T03:39:06.977Z,100714.56
2018-09-26T03:41:35.261Z,100716.40
2018-09-26T03:44:03.613Z,100722.91
2018-09-26T03:46:31.870Z,100717.84
2018-09-26T03:49:00.133Z,100706.57
2018-09-26T03:51:28.426Z,100711.74
2018-09-26T03:53:56.777Z,100705.36
2018-09-26T03:56:25.165Z,100712.84
2018-09-26T03:58:53.452Z,100710.70
2018-09-26T04:01:21.785Z,100701.06
2018-09-26T04:03:50.101Z,100695.44
2018-09-26T04:06:18.416Z,100693.19
2018-09-26T04:08:46.648Z,100686.22
2018-09-26T04:11:15.013Z,100684.66
2018-09-26T04:13:44.016Z,100693.86
2018-09-26T04:16:12.284Z,100692.83
2018-09-26T04:18:40.580Z,100687.53
2018-09-26T04:21:15.288Z,100688.31
2018-09-26T04:23:43.641Z,100679.80
2018-09-26T04:26:12.049Z,100679.57
2018-09-26T04:28:40.241Z,100679.75
2018-09-26T04:31:08.561Z,100678.85
2018-09-26T04:33:36.910Z,100672.44
2018-09-26T04:36:05.782Z,100676.92
2018-09-26T04:38:34.108Z,100673.59
2018-09-26T04:41:02.288Z,100669.51
2018-09-26T04:43:30.552Z,100665.55
2018-09-26T04:45:58.796Z,100660.66
2018-09-26T04:48:27.238Z,100664.48
2018-09-26T04:50:55.621Z,100662.50
2018-09-26T04:53:23.949Z,100658.99
2018-09-26T04:55:52.233Z,100667.91
2018-09-26T04:58:20.586Z,100661.52
2018-09-26T05:00:48.890Z,100652.89
2018-09-26T05:03:17.219Z,100656.17
2018-09-26T05:05:45.535Z,100658.36
2018-09-26T05:08:13.926Z,100655.31
2018-09-26T05:10:42.260Z,100660.40
2018-09-26T05:13:10.554Z,100658.22
2018-09-26T05:15:38.881Z,100657.09
2018-09-26T05:18:07.224Z,100653.77
2018-09-26T05:20:35.592Z,100657.06
2018-09-26T05:23:03.891Z,100646.70
2018-09-26T05:25:32.286Z,100646.34
2018-09-26T05:28:00.771Z,100644.00
2018-09-26T05:30:29.171Z,100643.08
2018-09-26T05:32:57.424Z,100657.87
2018-09-26T05:35:25.843Z,100656.95
2018-09-26T05:37:54.138Z,100664.72
2018-09-26T05:40:22.509Z,100659.13
2018-09-26T05:42:50.886Z,100659.48
2018-09-26T05:45:19.202Z,100665.05
2018-09-26T05:47:48.138Z,100665.11
2018-09-26T05:50:16.548Z,100657.57
2018-09-26T05:52:45.081Z,100660.00
2018-09-26T05:55:13.492Z,100655.30
2018-09-26T05:57:41.970Z,100649.75
2018-09-26T06:00:10.355Z,100643.33
2018-09-26T06:02:38.627Z,100637.66
2018-09-26T06:05:06.926Z,100642.22
2018-09-26T06:07:35.274Z,100638.73
2018-09-26T06:10:03.608Z,100639.30
2018-09-26T06:12:31.901Z,100636.14
2018-09-26T06:15:00.223Z,100623.50
2018-09-26T06:17:28.602Z,100630.92
2018-09-26T06:19:57.027Z,100622.74
2018-09-26T06:22:25.358Z,100614.59
2018-09-26T06:24:53.658Z,100621.68
2018-09-26T06:27:22.034Z,100610.72
2018-09-26T06:29:50.385Z,100617.39
2018-09-26T06:32:18.703Z,100613.40
2018-09-26T06:34:46.979Z,100606.48
2018-09-26T06:37:15.330Z,100610.14
2018-09-26T06:39:43.625Z,100603.98
2018-09-26T06:42:11.964Z,100605.99
2018-09-26T06:44:40.282Z,100608.88
2018-09-26T06:47:08.642Z,100607.39
2018-09-26T06:49:37.016Z,100604.94
2018-09-26T06:52:05.430Z,100611.15
2018-09-26T06:54:33.908Z,100605.98
2018-09-26T06:57:02.215Z,100603.72
2018-09-26T06:59:30.580Z,100604.81
2018-09-26T07:01:58.890Z,100611.25
2018-09-26T07:04:27.227Z,100609.94
2018-09-26T07:06:55.509Z,100607.91
2018-09-26T07:09:23.832Z,100618.77
2018-09-26T07:11:52.115Z,100616.80
2018-09-26T07:14:20.537Z,100624.01
2018-09-26T07:16:48.814Z,100618.27
2018-09-26T07:19:17.180Z,100615.61
2018-09-26T07:21:45.540Z,100615.91
2018-09-26T07:24:13.855Z,100613.20
2018-09-26T07:26:42.162Z,100607.47
2018-09-26T07:29:10.606Z,100607.19
2018-09-26T07:31:38.953Z,100603.61
2018-09-26T07:34:07.495Z,100603.98
2018-09-26T07:36:35.767Z,100594.55
2018-09-26T07:39:04.727Z,100597.92
2018-09-26T07:41:33.071Z,100599.25
2018-09-26T07:44:01.383Z,100602.94
2018-09-26T07:46:29.675Z,100597.11
2018-09-26T07:48:58.006Z,100602.61
2018-09-26T07:51:26.342Z,100597.33
2018-09-26T07:53:54.649Z,100611.40
2018-09-26T07:56:22.926Z,100615.59
2018-09-26T07:58:51.250Z,100597.01
2018-09-26T08:01:19.555Z,100608.36
2018-09-26T08:03:47.914Z,100616.11
2018-09-26T08:06:16.374Z,100606.31
2018-09-26T08:08:44.724Z,100610.44
2018-09-26T08:11:13.184Z,100604.02
2018-09-26T08:13:41.487Z,100596.81
2018-09-26T08:16:09.831Z,100605.88
2018-09-26T08:18:38.249Z,100609.05
2018-09-26T08:21:06.765Z,100616.20
2018-09-26T08:23:35.067Z,100616.30
2018-09-26T08:26:03.391Z,100615.16
2018-09-26T08:28:31.682Z,100620.69
2018-09-26T08:30:59.970Z,100614.68
2018-09-26T08:33:28.302Z,100608.20
2018-09-26T08:35:56.639Z,100608.99
2018-09-26T08:38:24.982Z,100606.06
2018-09-26T08:40:53.487Z,100607.94
2018-09-26T08:43:21.832Z,100599.98
2018-09-26T08:45:50.128Z,100598.94
2018-09-26T08:48:18.447Z,100592.90
2018-09-26T08:50:46.747Z,100588.91
2018-09-26T08:53:15.094Z,100581.34
2018-09-26T08:55:43.395Z,100574.84
2018-09-26T08:58:11.767Z,100571.73
2018-09-26T09:00:40.140Z,100567.00
2018-09-26T09:03:08.698Z,100559.08
2018-09-26T09:05:37.367Z,100563.57
2018-09-26T09:08:05.687Z,100556.78
2018-09-26T09:10:33.992Z,100560.62
2018-09-26T09:13:02.321Z,100562.23
2018-09-26T09:15:30.657Z,100563.91
2018-09-26T09:17:58.998Z,100568.05
2018-09-26T09:20:27.267Z,100578.69
2018-09-26T09:22:55.572Z,100573.55
2018-09-26T09:25:23.848Z,100576.39
2018-09-26T09:27:52.282Z,100579.64
2018-09-26T09:30:20.709Z,100581.43
2018-09-26T09:32:49.815Z,100583.41
2018-09-26T09:35:18.432Z,100577.09
2018-09-26T09:37:46.714Z,100571.44
2018-09-26T09:40:15.005Z,100574.27
2018-09-26T09:42:43.543Z,100568.80
2018-09-26T09:45:11.839Z,100569.88
2018-09-26T09:47:40.110Z,100568.72
2018-09-26T09:50:08.601Z,100565.33
2018-09-26T09:52:37.775Z,100551.09
2018-09-26T09:55:06.087Z,100558.48
2018-09-26T09:57:34.374Z,100553.05
2018-09-26T10:00:02.755Z,100544.38
2018-09-26T10:02:31.051Z,100539.95
2018-09-26T10:04:59.687Z,100540.44
2018-09-26T10:07:28.016Z,100550.55
2018-09-26T10:09:56.344Z,100555.53
2018-09-26T10:12:24.712Z,100551.34
2018-09-26T10:14:53.244Z,100554.55
2018-09-26T10:17:21.589Z,100549.05
2018-09-26T10:19:49.898Z,100549.91
2018-09-26T10:22:18.178Z,100548.08
2018-09-26T10:24:46.612Z,100535.64
2018-09-26T10:27:15.094Z,100536.73
2018-09-26T10:29:43.896Z,100525.42
2018-09-26T10:32:13.434Z,100518.11
2018-09-26T10:34:41.895Z,100516.56
2018-09-26T10:37:10.327Z,100511.14
2018-09-26T10:39:41.057Z,100516.55
2018-09-26T10:42:09.457Z,100507.66
2018-09-26T10:44:37.820Z,100518.29
2018-09-26T10:47:06.129Z,100514.56
2018-09-26T10:49:34.649Z,100517.22
2018-09-26T10:52:03.050Z,100521.38
2018-09-26T10:54:31.726Z,100514.84
2018-09-26T10:57:00.550Z,100512.13
2018-09-26T10:59:29.590Z,100516.66
2018-09-26T11:01:57.907Z,100519.09
2018-09-26T11:04:26.457Z,100509.31
2018-09-26T11:06:55.133Z,100505.08
2018-09-26T11:09:23.642Z,100504.09
2018-09-26T11:11:52.284Z,100501.45
2018-09-26T11:14:21.306Z,100501.87
2018-09-26T11:16:49.725Z,100501.16
2018-09-26T11:19:18.098Z,100496.22
2018-09-26T11:21:46.478Z,100496.67
2018-09-26T11:24:14.781Z,100485.00
2018-09-26T11:26:43.217Z,100479.64
2018-09-26T11:29:11.555Z,100478.09
2018-09-26T11:31:39.898Z,100475.38
2018-09-26T11:34:09.786Z,100461.83
2018-09-26T11:36:38.397Z,100455.75
2018-09-26T11:39:09.155Z,100448.64
2018-09-26T11:41:37.898Z,100447.55
2018-09-26T11:44:06.587Z,100445.23
2018-09-26T11:46:35.242Z,100436.23
2018-09-26T11:49:04.655Z,100444.28
2018-09-26T11:51:33.221Z,100455.77
2018-09-26T11:54:01.808Z,100457.73
2018-09-26T11:56:31.134Z,100443.70
2018-09-26T11:58:59.688Z,100452.12
2018-09-26T12:01:28.172Z,100450.65
2018-09-26T12:03:56.864Z,100438.32
2018-09-26T12:06:25.381Z,100439.44
2018-09-26T12:08:53.677Z,100434.17
2018-09-26T12:11:22.003Z,100443.43
2018-09-26T12:13:50.417Z,100433.44
2018-09-26T12:16:18.892Z,100422.42
2018-09-26T12:18:47.560Z,100416.58
2018-09-26T12:21:16.014Z,100414.49
2018-09-26T12:23:44.655Z,100411.81
2018-09-26T12:26:13.353Z,100408.88
2018-09-26T12:28:41.874Z,100412.27
2018-09-26T12:31:10.345Z,100416.45
2018-09-26T12:33:38.791Z,100407.30
2018-09-26T12:36:07.291Z,100403.98
2018-09-26T12:38:35.588Z,100395.08
2018-09-26T12:41:03.923Z,100384.34
2018-09-26T12:43:32.260Z,100382.27
2018-09-26T12:46:00.666Z,100375.59
2018-09-26T12:48:29.063Z,100379.06
2018-09-26T12:50:57.291Z,100373.53
2018-09-26T12:53:25.654Z,100369.55
2018-09-26T12:55:53.992Z,100372.87
2018-09-26T12:58:22.345Z,100371.48
2018-09-26T13:00:50.692Z,100367.48
2018-09-26T13:03:18.992Z,100358.61
2018-09-26T13:05:47.290Z,100351.52
2018-09-26T13:08:15.662Z,100355.17
2018-09-26T13:10:44.114Z,100354.42
2018-09-26T13:13:12.395Z,100350.74
2018-09-26T13:15:40.719Z,100345.37
2018-09-26T13:18:09.051Z,100330.51
2018-09-26T13:20:37.338Z,100333.20
2018-09-26T13:23:05.885Z,100331.16
2018-09-26T13:25:34.318Z,100331.56
2018-09-26T13:28:02.514Z,100330.09
2018-09-26T13:30:30.862Z,100324.22
2018-09-26T13:32:59.134Z,100319.92
2018-09-26T13:35:27.478Z,100329.91
2018-09-26T13:37:55.813Z,100329.20
2018-09-26T13:40:24.189Z,100329.72
2018-09-26T13:42:52.441Z,100323.77
2018-09-26T13:45:20.749Z,100319.67
2018-09-26T13:47:49.796Z,100320.99
2018-09-26T13:50:18.125Z,100324.94
2018-09-26T13:52:46.452Z,100325.13
2018-09-26T13:55:14.768Z,100316.25
2018-09-26T13:57:43.362Z,100311.13
2018-09-26T14:00:14.952Z,100309.55
2018-09-26T14:02:43.492Z,100295.13
2018-09-26T14:05:11.847Z,100296.91
2018-09-26T14:07:40.439Z,100295.66
2018-09-26T14:10:09.255Z,100287.23
2018-09-26T14:12:37.576Z,100283.11
2018-09-26T14:15:05.919Z,100275.50
2018-09-26T14:17:34.516Z,100273.02
2018-09-26T14:20:19.741Z,100270.95
2018-09-26T14:22:48.359Z,100276.50
2018-09-26T14:25:16.977Z,100267.93
2018-09-26T14:27:45.623Z,100271.96
2018-09-26T14:30:14.209Z,100264.98
2018-09-26T14:32:42.733Z,100267.80
2018-09-26T14:35:11.475Z,100271.72
2018-09-26T14:37:40.371Z,100272.03
2018-09-26T14:40:09.787Z,100268.89
2018-09-26T14:42:38.745Z,100265.37
2018-09-26T14:45:07.334Z,100264.30
2018-09-26T14:47:35.876Z,100253.63
2018-09-26T14:50:04.753Z,100254.31
2018-09-26T14:52:33.442Z,100246.03
2018-09-26T14:55:01.938Z,100248.23
2018-09-26T14:57:30.490Z,100239.50
2018-09-26T14:59:58.986Z,100239.66
2018-09-26T15:02:27.641Z,100247.00
2018-09-26T15:04:56.150Z,100237.54
2018-09-26T15:07:24.699Z,100237.66
2018-09-26T15:09:53.247Z,100232.00
2018-09-26T15:12:21.861Z,100231.45
2018-09-26T15:14:50.495Z,100230.02
2018-09-26T15:17:18.991Z,100228.73
2018-09-26T15:19:47.686Z,100233.56
2018-09-26T15:22:16.397Z,100233.90
2018-09-26T15:24:44.970Z,100229.40
2018-09-26T15:27:13.546Z,100226.77
2018-09-26T15:29:42.002Z,100232.40
2018-09-26T15:32:10.525Z,100227.37
2018-09-26T15:34:39.045Z,100232.80
2018-09-26T15:37:07.595Z,100236.67
2018-09-26T15:39:38.595Z,100240.33
2018-09-26T15:42:07.410Z,100241.67
2018-09-26T15:44:37.298Z,100232.41
2018-09-26T15:47:05.913Z,100231.77
2018-09-26T15:49:34.341Z,100231.81
2018-09-26T15:52:02.885Z,100238.19
2018-09-26T15:54:31.313Z,100232.04
2018-09-26T15:56:59.779Z,100229.45
2018-09-26T15:59:28.324Z,100233.09
2018-09-26T16:01:56.825Z,100224.25
2018-09-26T16:04:26.828Z,100225.78
2018-09-26T16:06:55.123Z,100217.69
2018-09-26T16:09:23.578Z,100215.09
2018-09-26T16:11:52.947Z,100223.52
2018-09-26T16:14:22.652Z,100222.51
2018-09-26T16:16:50.965Z,100225.81
2018-09-26T16:19:19.399Z,100219.10
2018-09-26T16:21:48.505Z,100218.19
2018-09-26T16:24:16.912Z,100224.63
2018-09-26T16:26:45.559Z,100224.56
2018-09-26T16:29:14.038Z,100220.17
2018-09-26T16:31:42.394Z,100218.84
2018-09-26T16:34:10.696Z,100219.34
2018-09-26T16:36:38.976Z,100217.54
2018-09-26T16:39:11.546Z,100225.47
2018-09-26T16:41:42.014Z,100221.22
2018-09-26T16:44:10.489Z,100225.10
2018-09-26T16:46:38.958Z,100222.12
2018-09-26T16:49:07.284Z,100212.65
2018-09-26T16:51:35.633Z,100211.91
2018-09-26T16:54:04.055Z,100220.84
2018-09-26T16:56:32.449Z,100226.44
2018-09-26T16:59:00.717Z,100228.03
2018-09-26T17:01:29.018Z,100228.17
2018-09-26T17:03:57.335Z,100233.02
2018-09-26T17:06:25.669Z,100231.30
2018-09-26T17:08:54.380Z,100236.64
2018-09-26T17:11:22.797Z,100233.19
2018-09-26T17:13:51.077Z,100240.01
2018-09-26T17:16:20.481Z,100240.13
2018-09-26T17:18:48.914Z,100242.34
2018-09-26T17:21:17.284Z,100236.73
2018-09-26T17:23:45.596Z,100237.31
2018-09-26T17:26:14.977Z,100241.88
2018-09-26T17:28:43.347Z,100244.33
2018-09-26T17:31:11.723Z,100240.41
2018-09-26T17:33:41.329Z,100240.22
2018-09-26T17:36:09.595Z,100242.24
2018-09-26T17:38:37.936Z,100245.97
2018-09-26T17:41:06.269Z,100236.30
2018-09-26T17:43:36.625Z,100235.02
2018-09-26T17:46:04.967Z,100226.84
2018-09-26T17:48:33.501Z,100224.00
2018-09-26T17:51:01.796Z,100219.13
2018-09-26T17:53:31.297Z,100221.27
2018-09-26T17:55:59.680Z,100221.99
2018-09-26T17:58:28.011Z,100223.71
2018-09-26T18:00:58.338Z,100213.73
2018-09-26T18:03:26.682Z,100203.27
2018-09-26T18:05:55.172Z,100205.85
2018-09-26T18:08:23.456Z,100204.27
2018-09-26T18:10:52.568Z,100203.88
2018-09-26T18:13:20.934Z,100202.41
2018-09-26T18:15:49.183Z,100200.22
2018-09-26T18:18:24.083Z,100208.41
2018-09-26T18:20:53.423Z,100199.98
2018-09-26T18:23:21.806Z,100193.28
2018-09-26T18:25:50.180Z,100210.12
2018-09-26T18:28:19.533Z,100204.97
2018-09-26T18:30:47.813Z,100212.77
2018-09-26T18:33:16.247Z,100220.83
2018-09-26T18:35:44.666Z,100221.93
2018-09-26T18:38:13.245Z,100229.00
2018-09-26T18:40:41.537Z,100224.63
2018-09-26T18:43:09.836Z,100243.48
2018-09-26T18:45:39.158Z,100237.28
2018-09-26T18:48:07.489Z,100239.09
2018-09-26T18:50:36.950Z,100247.66
2018-09-26T18:53:06.035Z,100259.95
2018-09-26T18:55:34.595Z,100265.19
2018-09-26T18:58:03.489Z,100265.19
2018-09-26T19:00:32.186Z,100265.39
2018-09-26T19:03:00.927Z,100262.95
2018-09-26T19:05:29.361Z,100255.72
2018-09-26T19:07:57.722Z,100256.53
2018-09-26T19:10:26.917Z,100260.52
2018-09-26T19:12:55.417Z,100260.80
2018-09-26T19:15:23.645Z,100262.30
2018-09-26T19:17:52.052Z,100270.79
2018-09-26T19:20:20.768Z,100265.88
2018-09-26T19:22:50.271Z,100268.40
2018-09-26T19:25:18.622Z,100271.56
2018-09-26T19:27:46.891Z,100272.66
2018-09-26T19:30:15.353Z,100271.30
2018-09-26T19:32:43.737Z,100272.22
2018-09-26T19:35:12.041Z,100269.55
2018-09-26T19:37:40.412Z,100267.16
2018-09-26T19:40:09.199Z,100264.13
2018-09-26T19:42:38.892Z,100270.17
2018-09-26T19:45:07.971Z,100258.02
2018-09-26T19:48:40.313Z,100260.95
2018-09-26T19:51:08.606Z,100255.11
2018-09-26T19:53:36.876Z,100268.03
2018-09-26T19:56:06.712Z,100278.06
2018-09-26T19:58:35.013Z,100267.95
2018-09-26T20:01:03.297Z,100263.36
2018-09-26T20:03:32.311Z,100262.22
2018-09-26T20:06:00.542Z,100264.30
2018-09-26T20:08:28.819Z,100269.05
2018-09-26T20:10:58.213Z,100267.26
2018-09-26T20:13:26.632Z,100274.11
2018-09-26T20:15:54.953Z,100269.45
2018-09-26T20:18:23.272Z,100261.56
2018-09-26T20:20:51.581Z,100259.33
2018-09-26T20:23:19.956Z,100269.45
2018-09-26T20:25:48.132Z,100265.58
2018-09-26T20:28:16.515Z,100261.32
2018-09-26T20:30:44.810Z,100265.33
2018-09-26T20:33:13.514Z,100263.77
2018-09-26T20:35:41.831Z,100271.43
2018-09-26T20:38:10.106Z,100273.14
2018-09-26T20:40:38.382Z,100279.45
2018-09-26T20:43:06.646Z,100273.50
2018-09-26T20:45:34.984Z,100269.97
2018-09-26T20:48:03.278Z,100265.43
2018-09-26T20:50:32.861Z,100265.27
2018-09-26T20:53:01.717Z,100270.52
2018-09-26T20:55:30.320Z,100267.75
2018-09-26T20:57:58.649Z,100262.99
2018-09-26T21:00:27.383Z,100268.20
2018-09-26T21:02:56.050Z,100267.54
2018-09-26T21:05:24.420Z,100260.59
2018-09-26T21:07:52.718Z,100258.27
2018-09-26T21:10:21.117Z,100261.97
2018-09-26T21:12:49.434Z,100260.71
2018-09-26T21:15:17.694Z,100260.66
2018-09-26T21:17:45.998Z,100263.40
2018-09-26T21:20:14.331Z,100265.71
2018-09-26T21:22:42.708Z,100263.52
2018-09-26T21:25:10.992Z,100263.16
2018-09-26T21:27:39.241Z,100273.09
2018-09-26T21:30:07.569Z,100264.45
2018-09-26T21:32:35.810Z,100268.47
2018-09-26T21:35:06.201Z,100263.64
2018-09-26T21:37:34.527Z,100263.71
2018-09-26T21:40:02.823Z,100269.97
2018-09-26T21:42:31.209Z,100261.14
2018-09-26T21:44:59.489Z,100263.94
2018-09-26T21:47:27.733Z,100262.12
2018-09-26T21:49:56.705Z,100259.93
2018-09-26T21:52:24.956Z,100252.99
2018-09-26T21:54:53.265Z,100253.88
2018-09-26T21:57:21.536Z,100251.39
2018-09-26T21:59:49.885Z,100250.86
2018-09-26T22:02:18.187Z,100256.14
2018-09-26T22:04:46.495Z,100258.59
2018-09-26T22:07:14.857Z,100258.95
2018-09-26T22:09:43.196Z,100252.12
2018-09-26T22:12:11.538Z,100258.45
2018-09-26T22:14:39.836Z,100256.68
2018-09-26T22:17:08.198Z,100264.79
2018-09-26T22:19:36.503Z,100268.55
2018-09-26T22:22:04.832Z,100270.98
2018-09-26T22:24:33.187Z,100273.40
2018-09-26T22:27:01.543Z,100276.39
2018-09-26T22:29:29.847Z,100273.83
2018-09-26T22:31:58.164Z,100269.84
2018-09-26T22:34:26.446Z,100268.88
2018-09-26T22:36:54.762Z,100262.57
2018-09-26T22:39:23.195Z,100260.47
2018-09-26T22:41:51.525Z,100264.31
2018-09-26T22:44:19.842Z,100254.70
2018-09-26T22:46:48.162Z,100259.89
2018-09-26T22:49:16.476Z,100262.88
2018-09-26T22:51:44.794Z,100265.34
2018-09-26T22:54:13.138Z,100261.91
2018-09-26T22:56:41.994Z,100265.35
2018-09-26T22:59:10.286Z,100276.80
2018-09-26T23:01:38.581Z,100269.66
2018-09-26T23:04:06.900Z,100284.34
2018-09-26T23:06:35.239Z,100275.52
2018-09-26T23:09:03.581Z,100281.42
2018-09-26T23:11:31.919Z,100275.86
2018-09-26T23:14:00.212Z,100275.59
2018-09-26T23:16:28.535Z,100273.06
2018-09-26T23:18:56.861Z,100269.59
2018-09-26T23:21:25.180Z,100259.67
2018-09-26T23:23:53.510Z,100266.64
2018-09-26T23:26:21.831Z,100267.81
2018-09-26T23:28:50.162Z,100267.94
2018-09-26T23:31:18.470Z,100265.73
2018-09-26T23:33:46.756Z,100257.45
2018-09-26T23:36:15.082Z,100267.25
2018-09-26T23:38:43.368Z,100262.73
2018-09-26T23:41:11.707Z,100255.19
2018-09-26T23:43:39.991Z,100256.78
2018-09-26T23:46:08.337Z,100268.75
2018-09-26T23:48:36.699Z,100256.35
2018-09-26T23:51:05.003Z,100267.69
2018-09-26T23:53:33.335Z,100258.58
2018-09-26T23:56:01.621Z,100261.03
2018-09-26T23:58:29.926Z,100266.64
